sensor_id;sensor_type;location;lat;lon;timestamp;pressure;altitude;pressure_sealevel;temperature;humidity
40502;BME280;29631;49.168;9.848;2023-05-03T00:00:41;97388.34;;;16.02;78.21
40502;BME280;29631;49.168;9.848;2023-05-03T00:03:07;97448.88;;;16.49;77.71
40502;BME280;29631;49.168;9.848;2023-05-03T00:05:32;97412.88;;;16.22;78.01
40502;BME280;29631;49.168;9.848;2023-05-03T00:07:58;97437.53;;;16.36;77.71
40502;BME280;29631;49.168;9.848;2023-05-03T00:10:25;97448.41;;;16.34;78.52
40502;BME280;29631;49.168;9.848;2023-05-03T00:12:51;97446.56;;;16.35;78.49
40502;BME280;29631;49.168;9.848;2023-05-03T00:15:16;97431.38;;;16.17;78.20
40502;BME280;29631;49.168;9.848;2023-05-03T00:17:42;97421.63;;;16.11;77.99
40502;BME280;29631;49.168;9.848;2023-05-03T00:20:08;97429.28;;;16.19;78.09
40502;BME280;29631;49.168;9.848;2023-05-03T00:22:34;97449.13;;;16.23;78.25
40502;BME280;29631;49.168;9.848;2023-05-03T00:25:01;97448.09;;;16.24;78.60
40502;BME280;29631;49.168;9.848;2023-05-03T00:27:27;97428.75;;;16.11;78.28
40502;BME280;29631;49.168;9.848;2023-05-03T00:29:53;97406.66;;;15.93;78.32
40502;BME280;29631;49.168;9.848;2023-05-03T00:32:20;97443.84;;;16.17;78.65
40502;BME280;29631;49.168;9.848;2023-05-03T00:34:55;97438.38;;;16.12;78.72
40502;BME280;29631;49.168;9.848;2023-05-03T00:37:22;97347.28;;;15.56;78.53
40502;BME280;29631;49.168;9.848;2023-05-03T00:39:48;97429.50;;;16.00;78.28
40502;BME280;29631;49.168;9.848;2023-05-03T00:42:14;97422.91;;;16.02;79.05
40502;BME280;29631;49.168;9.848;2023-05-03T00:44:41;97423.94;;;16.01;78.46
40502;BME280;29631;49.168;9.848;2023-05-03T00:47:07;97402.22;;;15.87;78.35
40502;BME280;29631;49.168;9.848;2023-05-03T00:49:33;97413.59;;;15.94;78.67
40502;BME280;29631;49.168;9.848;2023-05-03T00:52:00;97419.72;;;15.94;78.84
40502;BME280;29631;49.168;9.848;2023-05-03T00:54:27;97423.03;;;15.90;79.12
40502;BME280;29631;49.168;9.848;2023-05-03T00:56:55;97412.09;;;15.80;79.02
40502;BME280;29631;49.168;9.848;2023-05-03T00:59:21;97431.47;;;15.87;79.01
40502;BME280;29631;49.168;9.848;2023-05-03T01:01:50;97434.56;;;15.84;78.63
40502;BME280;29631;49.168;9.848;2023-05-03T01:04:16;97426.44;;;15.79;78.91
40502;BME280;29631;49.168;9.848;2023-05-03T01:06:54;97438.25;;;15.83;79.22
40502;BME280;29631;49.168;9.848;2023-05-03T01:18:19;97409.38;;;15.62;78.74
40502;BME280;29631;49.168;9.848;2023-05-03T01:20:48;97419.13;;;15.68;78.76
40502;BME280;29631;49.168;9.848;2023-05-03T01:23:39;97422.84;;;15.67;78.45
40502;BME280;29631;49.168;9.848;2023-05-03T01:26:27;97412.47;;;15.59;79.40
40502;BME280;29631;49.168;9.848;2023-05-03T01:28:53;97424.16;;;15.58;79.03
40502;BME280;29631;49.168;9.848;2023-05-03T01:31:43;97429.47;;;15.58;79.09
40502;BME280;29631;49.168;9.848;2023-05-03T01:37:07;97420.13;;;15.49;79.07
40502;BME280;29631;49.168;9.848;2023-05-03T01:42:10;97422.97;;;15.54;79.60
40502;BME280;29631;49.168;9.848;2023-05-03T01:44:37;97415.25;;;15.46;79.47
40502;BME280;29631;49.168;9.848;2023-05-03T01:47:04;97408.31;;;15.45;78.79
40502;BME280;29631;49.168;9.848;2023-05-03T01:49:29;97390.81;;;15.31;79.24
40502;BME280;29631;49.168;9.848;2023-05-03T01:51:55;97400.56;;;15.43;79.43
40502;BME280;29631;49.168;9.848;2023-05-03T01:54:21;97386.38;;;15.25;79.16
40502;BME280;29631;49.168;9.848;2023-05-03T01:56:47;97405.91;;;15.37;79.16
40502;BME280;29631;49.168;9.848;2023-05-03T01:59:12;97410.34;;;15.43;79.44
40502;BME280;29631;49.168;9.848;2023-05-03T02:01:38;97399.41;;;15.33;79.10
40502;BME280;29631;49.168;9.848;2023-05-03T02:04:04;97378.63;;;15.17;79.20
40502;BME280;29631;49.168;9.848;2023-05-03T02:06:30;97408.81;;;15.29;78.95
40502;BME280;29631;49.168;9.848;2023-05-03T02:08:56;97392.53;;;15.19;79.11
40502;BME280;29631;49.168;9.848;2023-05-03T02:11:21;97410.44;;;15.30;79.29
40502;BME280;29631;49.168;9.848;2023-05-03T02:13:48;97390.28;;;15.16;79.17
40502;BME280;29631;49.168;9.848;2023-05-03T02:16:17;97380.34;;;15.05;78.80
40502;BME280;29631;49.168;9.848;2023-05-03T02:18:43;97412.94;;;15.25;79.30
40502;BME280;29631;49.168;9.848;2023-05-03T02:21:09;97413.16;;;15.24;79.26
40502;BME280;29631;49.168;9.848;2023-05-03T02:23:35;97404.00;;;15.13;79.33
40502;BME280;29631;49.168;9.848;2023-05-03T02:26:01;97408.53;;;15.06;79.39
40502;BME280;29631;49.168;9.848;2023-05-03T02:28:27;97429.72;;;15.19;79.39
40502;BME280;29631;49.168;9.848;2023-05-03T02:30:52;97408.53;;;15.06;79.13
40502;BME280;29631;49.168;9.848;2023-05-03T02:33:18;97391.66;;;14.94;79.31
40502;BME280;29631;49.168;9.848;2023-05-03T02:35:44;97428.94;;;15.12;79.62
40502;BME280;29631;49.168;9.848;2023-05-03T02:38:10;97417.13;;;15.08;79.94
40502;BME280;29631;49.168;9.848;2023-05-03T02:40:36;97406.75;;;15.00;79.89
40502;BME280;29631;49.168;9.848;2023-05-03T02:43:02;97335.31;;;14.55;79.60
40502;BME280;29631;49.168;9.848;2023-05-03T02:45:28;97391.13;;;14.86;79.59
40502;BME280;29631;49.168;9.848;2023-05-03T02:47:54;97415.34;;;14.96;79.55
40502;BME280;29631;49.168;9.848;2023-05-03T02:50:20;97406.78;;;14.94;79.61
40502;BME280;29631;49.168;9.848;2023-05-03T02:52:45;97399.66;;;14.88;79.73
40502;BME280;29631;49.168;9.848;2023-05-03T02:55:11;97423.94;;;14.98;79.07
40502;BME280;29631;49.168;9.848;2023-05-03T02:57:37;97398.50;;;14.77;79.42
40502;BME280;29631;49.168;9.848;2023-05-03T03:00:05;97420.09;;;14.87;79.34
40502;BME280;29631;49.168;9.848;2023-05-03T03:02:31;97405.03;;;14.81;79.58
40502;BME280;29631;49.168;9.848;2023-05-03T03:04:57;97413.59;;;14.83;79.11
40502;BME280;29631;49.168;9.848;2023-05-03T03:07:23;97408.31;;;14.77;79.05
40502;BME280;29631;49.168;9.848;2023-05-03T03:09:48;97411.19;;;14.75;79.63
40502;BME280;29631;49.168;9.848;2023-05-03T03:12:14;97414.41;;;14.77;79.80
40502;BME280;29631;49.168;9.848;2023-05-03T03:14:40;97412.03;;;14.69;79.51
40502;BME280;29631;49.168;9.848;2023-05-03T03:17:07;97417.34;;;14.69;79.61
40502;BME280;29631;49.168;9.848;2023-05-03T03:19:33;97413.09;;;14.55;79.30
40502;BME280;29631;49.168;9.848;2023-05-03T03:21:59;97430.78;;;14.68;79.33
40502;BME280;29631;49.168;9.848;2023-05-03T03:24:25;97396.81;;;14.46;79.60
40502;BME280;29631;49.168;9.848;2023-05-03T03:26:51;97394.81;;;14.41;79.05
40502;BME280;29631;49.168;9.848;2023-05-03T03:29:17;97413.50;;;14.52;79.49
40502;BME280;29631;49.168;9.848;2023-05-03T03:31:42;97353.47;;;14.08;79.15
40502;BME280;29631;49.168;9.848;2023-05-03T03:34:11;97409.22;;;14.51;79.73
40502;BME280;29631;49.168;9.848;2023-05-03T03:36:37;97409.66;;;14.49;79.50
40502;BME280;29631;49.168;9.848;2023-05-03T03:39:04;97383.19;;;14.29;79.24
40502;BME280;29631;49.168;9.848;2023-05-03T03:41:31;97395.44;;;14.30;79.16
40502;BME280;29631;49.168;9.848;2023-05-03T03:43:57;97411.75;;;14.40;79.71
40502;BME280;29631;49.168;9.848;2023-05-03T03:46:23;97389.75;;;14.27;79.91
40502;BME280;29631;49.168;9.848;2023-05-03T03:48:49;97422.38;;;14.34;79.20
40502;BME280;29631;49.168;9.848;2023-05-03T03:51:15;97412.59;;;14.34;79.86
40502;BME280;29631;49.168;9.848;2023-05-03T03:53:41;97384.06;;;14.10;79.37
40502;BME280;29631;49.168;9.848;2023-05-03T03:56:07;97402.81;;;14.22;79.15
40502;BME280;29631;49.168;9.848;2023-05-03T03:58:33;97393.47;;;14.13;79.04
40502;BME280;29631;49.168;9.848;2023-05-03T04:00:59;97398.34;;;14.16;79.16
40502;BME280;29631;49.168;9.848;2023-05-03T04:03:25;97406.53;;;14.14;78.70
40502;BME280;29631;49.168;9.848;2023-05-03T04:05:51;97438.09;;;14.29;78.73
40502;BME280;29631;49.168;9.848;2023-05-03T04:08:17;97424.03;;;14.22;79.55
40502;BME280;29631;49.168;9.848;2023-05-03T04:10:43;97442.59;;;14.28;79.20
40502;BME280;29631;49.168;9.848;2023-05-03T04:13:09;97434.25;;;14.25;79.79
40502;BME280;29631;49.168;9.848;2023-05-03T04:15:35;97415.28;;;14.15;78.97
40502;BME280;29631;49.168;9.848;2023-05-03T04:18:00;97423.44;;;14.13;79.59
40502;BME280;29631;49.168;9.848;2023-05-03T04:20:26;97437.72;;;14.19;78.74
40502;BME280;29631;49.168;9.848;2023-05-03T04:22:52;97439.16;;;14.15;78.80
40502;BME280;29631;49.168;9.848;2023-05-03T04:25:18;97434.28;;;14.12;79.19
40502;BME280;29631;49.168;9.848;2023-05-03T04:27:44;97452.59;;;14.20;79.40
40502;BME280;29631;49.168;9.848;2023-05-03T04:30:11;97443.22;;;14.17;79.08
40502;BME280;29631;49.168;9.848;2023-05-03T04:32:38;97423.03;;;13.97;79.60
40502;BME280;29631;49.168;9.848;2023-05-03T04:35:06;97465.28;;;14.18;79.38
40502;BME280;29631;49.168;9.848;2023-05-03T04:37:36;97455.50;;;14.12;79.27
40502;BME280;29631;49.168;9.848;2023-05-03T04:40:04;97465.09;;;14.13;79.25
40502;BME280;29631;49.168;9.848;2023-05-03T04:42:34;97404.13;;;13.74;79.68
40502;BME280;29631;49.168;9.848;2023-05-03T04:45:01;97469.56;;;14.12;79.77
40502;BME280;29631;49.168;9.848;2023-05-03T04:47:31;97449.97;;;14.00;79.87
40502;BME280;29631;49.168;9.848;2023-05-03T04:49:57;97466.47;;;14.09;79.64
40502;BME280;29631;49.168;9.848;2023-05-03T04:52:24;97482.59;;;14.14;79.57
40502;BME280;29631;49.168;9.848;2023-05-03T04:54:51;97443.63;;;13.95;79.08
40502;BME280;29631;49.168;9.848;2023-05-03T04:57:17;97475.47;;;14.14;80.02
40502;BME280;29631;49.168;9.848;2023-05-03T04:59:43;97460.19;;;14.10;79.63
40502;BME280;29631;49.168;9.848;2023-05-03T05:02:09;97480.56;;;14.22;80.15
40502;BME280;29631;49.168;9.848;2023-05-03T05:04:35;97415.13;;;13.84;79.80
40502;BME280;29631;49.168;9.848;2023-05-03T05:07:00;97445.69;;;14.06;79.88
40502;BME280;29631;49.168;9.848;2023-05-03T05:09:27;97431.81;;;13.91;79.90
40502;BME280;29631;49.168;9.848;2023-05-03T05:11:55;97484.00;;;14.36;80.19
40502;BME280;29631;49.168;9.848;2023-05-03T05:14:21;97455.50;;;14.12;80.37
40502;BME280;29631;49.168;9.848;2023-05-03T05:16:47;97448.13;;;14.20;79.59
40502;BME280;29631;49.168;9.848;2023-05-03T05:19:13;97478.91;;;14.34;79.95
40502;BME280;29631;49.168;9.848;2023-05-03T05:21:39;97461.56;;;14.32;80.32
40502;BME280;29631;49.168;9.848;2023-05-03T05:24:05;97465.63;;;14.28;80.38
40502;BME280;29631;49.168;9.848;2023-05-03T05:26:31;97471.75;;;14.41;80.38
40502;BME280;29631;49.168;9.848;2023-05-03T05:28:56;97493.78;;;14.48;80.75
40502;BME280;29631;49.168;9.848;2023-05-03T05:31:22;97501.09;;;14.52;80.21
40502;BME280;29631;49.168;9.848;2023-05-03T05:33:49;97488.03;;;14.51;80.79
40502;BME280;29631;49.168;9.848;2023-05-03T05:36:15;97447.25;;;14.33;80.76
40502;BME280;29631;49.168;9.848;2023-05-03T05:38:41;97479.44;;;14.55;80.39
40502;BME280;29631;49.168;9.848;2023-05-03T05:41:06;97482.28;;;14.60;80.46
40502;BME280;29631;49.168;9.848;2023-05-03T05:43:32;97492.25;;;14.71;80.41
40502;BME280;29631;49.168;9.848;2023-05-03T05:45:58;97491.41;;;14.77;80.57
40502;BME280;29631;49.168;9.848;2023-05-03T05:48:24;97497.50;;;14.84;80.47
40502;BME280;29631;49.168;9.848;2023-05-03T05:50:49;97505.06;;;14.87;81.30
40502;BME280;29631;49.168;9.848;2023-05-03T05:53:15;97437.41;;;14.52;80.86
40502;BME280;29631;49.168;9.848;2023-05-03T05:55:42;97508.06;;;14.97;81.02
40502;BME280;29631;49.168;9.848;2023-05-03T05:58:07;97491.97;;;14.92;81.02
40502;BME280;29631;49.168;9.848;2023-05-03T06:00:34;97479.53;;;14.86;80.88
40502;BME280;29631;49.168;9.848;2023-05-03T06:03:00;97443.88;;;14.69;80.81
40502;BME280;29631;49.168;9.848;2023-05-03T06:05:26;97503.13;;;15.07;80.44
40502;BME280;29631;49.168;9.848;2023-05-03T06:07:52;97500.44;;;15.14;81.30
40502;BME280;29631;49.168;9.848;2023-05-03T06:10:18;97499.81;;;15.18;81.41
40502;BME280;29631;49.168;9.848;2023-05-03T06:12:43;97481.66;;;15.15;81.19
40502;BME280;29631;49.168;9.848;2023-05-03T06:15:09;97489.38;;;15.23;81.40
40502;BME280;29631;49.168;9.848;2023-05-03T06:17:35;97493.03;;;15.28;81.39
40502;BME280;29631;49.168;9.848;2023-05-03T06:20:01;97421.72;;;14.88;81.17
40502;BME280;29631;49.168;9.848;2023-05-03T06:22:28;97470.16;;;15.27;81.57
40502;BME280;29631;49.168;9.848;2023-05-03T06:24:54;97485.19;;;15.40;81.43
40502;BME280;29631;49.168;9.848;2023-05-03T06:27:20;97467.47;;;15.34;81.21
40502;BME280;29631;49.168;9.848;2023-05-03T06:29:47;97490.84;;;15.50;82.00
40502;BME280;29631;49.168;9.848;2023-05-03T06:32:14;97489.19;;;15.55;82.13
40502;BME280;29631;49.168;9.848;2023-05-03T06:34:40;97486.91;;;15.59;82.24
40502;BME280;29631;49.168;9.848;2023-05-03T06:37:06;97490.91;;;15.68;82.08
40502;BME280;29631;49.168;9.848;2023-05-03T06:39:31;97497.63;;;15.77;81.93
40502;BME280;29631;49.168;9.848;2023-05-03T06:41:57;97506.50;;;15.89;82.44
40502;BME280;29631;49.168;9.848;2023-05-03T06:44:23;97497.09;;;15.93;82.57
40502;BME280;29631;49.168;9.848;2023-05-03T06:46:49;97493.75;;;15.97;82.41
40502;BME280;29631;49.168;9.848;2023-05-03T06:49:15;97492.53;;;15.99;82.14
40502;BME280;29631;49.168;9.848;2023-05-03T06:51:41;97475.38;;;15.96;82.40
40502;BME280;29631;49.168;9.848;2023-05-03T06:54:06;97446.94;;;15.72;82.29
40502;BME280;29631;49.168;9.848;2023-05-03T06:56:35;97485.00;;;16.14;82.10
40502;BME280;29631;49.168;9.848;2023-05-03T06:59:01;97430.72;;;15.80;82.76
40502;BME280;29631;49.168;9.848;2023-05-03T07:01:29;97485.75;;;16.28;82.13
40502;BME280;29631;49.168;9.848;2023-05-03T07:03:55;97447.50;;;15.98;82.24
40502;BME280;29631;49.168;9.848;2023-05-03T07:06:20;97438.00;;;16.08;82.70
40502;BME280;29631;49.168;9.848;2023-05-03T07:08:52;97500.63;;;16.53;82.54
40502;BME280;29631;49.168;9.848;2023-05-03T07:11:21;97492.78;;;16.58;82.39
40502;BME280;29631;49.168;9.848;2023-05-03T07:13:50;97463.22;;;16.48;82.30
40502;BME280;29631;49.168;9.848;2023-05-03T07:16:19;97485.63;;;16.59;82.58
40502;BME280;29631;49.168;9.848;2023-05-03T07:18:46;97459.59;;;16.61;82.86
40502;BME280;29631;49.168;9.848;2023-05-03T07:21:13;97499.44;;;16.85;82.80
40502;BME280;29631;49.168;9.848;2023-05-03T07:23:39;97483.03;;;16.88;83.18
40502;BME280;29631;49.168;9.848;2023-05-03T07:26:05;97476.34;;;16.97;83.23
40502;BME280;29631;49.168;9.848;2023-05-03T07:28:32;97458.59;;;16.91;83.00
40502;BME280;29631;49.168;9.848;2023-05-03T07:30:57;97494.50;;;17.18;83.01
40502;BME280;29631;49.168;9.848;2023-05-03T07:33:24;97472.59;;;17.16;82.52
40502;BME280;29631;49.168;9.848;2023-05-03T07:35:50;97477.22;;;17.27;82.90
40502;BME280;29631;49.168;9.848;2023-05-03T07:38:16;97474.44;;;17.33;83.12
40502;BME280;29631;49.168;9.848;2023-05-03T07:40:42;97488.84;;;17.44;83.00
40502;BME280;29631;49.168;9.848;2023-05-03T07:43:09;97445.63;;;17.24;82.68
40502;BME280;29631;49.168;9.848;2023-05-03T07:45:35;97476.47;;;17.49;82.85
40502;BME280;29631;49.168;9.848;2023-05-03T07:48:01;97488.34;;;17.64;83.17
40502;BME280;29631;49.168;9.848;2023-05-03T07:50:29;97499.13;;;17.69;82.59
40502;BME280;29631;49.168;9.848;2023-05-03T07:52:54;97493.72;;;17.76;83.43
40502;BME280;29631;49.168;9.848;2023-05-03T07:55:21;97461.78;;;17.69;82.46
40502;BME280;29631;49.168;9.848;2023-05-03T07:57:47;97451.47;;;17.73;83.11
40502;BME280;29631;49.168;9.848;2023-05-03T08:00:13;97479.00;;;17.96;82.94
40502;BME280;29631;49.168;9.848;2023-05-03T08:02:40;97454.88;;;17.91;82.97
40502;BME280;29631;49.168;9.848;2023-05-03T08:05:06;97475.09;;;18.10;82.69
40502;BME280;29631;49.168;9.848;2023-05-03T08:07:33;97469.75;;;18.10;82.58
40502;BME280;29631;49.168;9.848;2023-05-03T08:09:59;97469.19;;;18.20;82.83
40502;BME280;29631;49.168;9.848;2023-05-03T08:12:26;97449.09;;;18.17;82.88
40502;BME280;29631;49.168;9.848;2023-05-03T08:14:53;97450.72;;;18.18;83.01
40502;BME280;29631;49.168;9.848;2023-05-03T08:17:20;97467.78;;;18.40;82.90
40502;BME280;29631;49.168;9.848;2023-05-03T08:19:47;97457.22;;;18.45;82.89
40502;BME280;29631;49.168;9.848;2023-05-03T08:22:13;97425.75;;;18.35;82.55
40502;BME280;29631;49.168;9.848;2023-05-03T08:24:39;97440.25;;;18.51;82.89
40502;BME280;29631;49.168;9.848;2023-05-03T08:27:05;97419.38;;;18.48;82.18
40502;BME280;29631;49.168;9.848;2023-05-03T08:29:33;97448.69;;;18.71;82.46
40502;BME280;29631;49.168;9.848;2023-05-03T08:31:58;97480.72;;;18.82;82.54
40502;BME280;29631;49.168;9.848;2023-05-03T08:34:24;97443.94;;;18.73;82.88
40502;BME280;29631;49.168;9.848;2023-05-03T08:36:50;97466.66;;;18.87;82.58
40502;BME280;29631;49.168;9.848;2023-05-03T08:39:17;97474.06;;;18.96;82.52
40502;BME280;29631;49.168;9.848;2023-05-03T08:41:43;97473.38;;;19.00;82.39
40502;BME280;29631;49.168;9.848;2023-05-03T08:44:11;97464.31;;;19.01;83.22
40502;BME280;29631;49.168;9.848;2023-05-03T08:46:42;97488.69;;;19.16;82.45
40502;BME280;29631;49.168;9.848;2023-05-03T08:49:08;97489.84;;;19.20;82.82
40502;BME280;29631;49.168;9.848;2023-05-03T08:51:34;97450.91;;;19.13;82.24
40502;BME280;29631;49.168;9.848;2023-05-03T08:54:04;97453.84;;;19.11;82.22
40502;BME280;29631;49.168;9.848;2023-05-03T08:56:42;97469.59;;;19.24;81.79
40502;BME280;29631;49.168;9.848;2023-05-03T08:59:09;97415.84;;;18.98;82.36
40502;BME280;29631;49.168;9.848;2023-05-03T09:01:40;97476.28;;;19.38;82.35
40502;BME280;29631;49.168;9.848;2023-05-03T09:04:07;97451.91;;;19.23;82.00
40502;BME280;29631;49.168;9.848;2023-05-03T09:06:34;97465.91;;;19.42;81.71
40502;BME280;29631;49.168;9.848;2023-05-03T09:09:03;97475.16;;;19.51;82.03
40502;BME280;29631;49.168;9.848;2023-05-03T09:11:33;97475.59;;;19.59;81.80
40502;BME280;29631;49.168;9.848;2023-05-03T09:14:16;97476.09;;;19.72;81.88
40502;BME280;29631;49.168;9.848;2023-05-03T09:16:44;97477.00;;;19.78;81.82
40502;BME280;29631;49.168;9.848;2023-05-03T09:19:12;97489.03;;;19.92;82.13
40502;BME280;29631;49.168;9.848;2023-05-03T09:21:40;97492.94;;;20.01;82.00
40502;BME280;29631;49.168;9.848;2023-05-03T09:24:20;97494.91;;;20.05;81.42
40502;BME280;29631;49.168;9.848;2023-05-03T09:26:49;97472.69;;;20.05;81.47
40502;BME280;29631;49.168;9.848;2023-05-03T09:29:30;97478.09;;;20.10;81.64
40502;BME280;29631;49.168;9.848;2023-05-03T09:31:59;97464.38;;;20.06;81.36
40502;BME280;29631;49.168;9.848;2023-05-03T09:34:25;97486.78;;;20.33;81.18
40502;BME280;29631;49.168;9.848;2023-05-03T09:36:51;97481.47;;;20.38;81.61
40502;BME280;29631;49.168;9.848;2023-05-03T09:39:18;97453.78;;;20.33;81.68
40502;BME280;29631;49.168;9.848;2023-05-03T09:41:45;97385.84;;;20.01;81.61
40502;BME280;29631;49.168;9.848;2023-05-03T09:44:11;97443.72;;;20.40;81.52
40502;BME280;29631;49.168;9.848;2023-05-03T09:46:37;97484.78;;;20.61;81.54
40502;BME280;29631;49.168;9.848;2023-05-03T09:49:03;97461.13;;;20.58;82.10
40502;BME280;29631;49.168;9.848;2023-05-03T09:51:30;97465.09;;;20.72;82.05
40502;BME280;29631;49.168;9.848;2023-05-03T09:53:59;97466.72;;;20.73;82.31
40502;BME280;29631;49.168;9.848;2023-05-03T09:56:25;97471.09;;;20.79;81.90
40502;BME280;29631;49.168;9.848;2023-05-03T09:58:53;97401.69;;;20.40;81.12
40502;BME280;29631;49.168;9.848;2023-05-03T10:01:19;97463.13;;;20.84;81.46
40502;BME280;29631;49.168;9.848;2023-05-03T10:03:50;97473.47;;;20.97;81.21
40502;BME280;29631;49.168;9.848;2023-05-03T10:06:35;97455.00;;;21.01;81.60
40502;BME280;29631;49.168;9.848;2023-05-03T10:09:14;97471.56;;;21.14;81.08
40502;BME280;29631;49.168;9.848;2023-05-03T10:11:51;97466.69;;;21.11;81.34
40502;BME280;29631;49.168;9.848;2023-05-03T10:14:19;97468.66;;;21.20;80.91
40502;BME280;29631;49.168;9.848;2023-05-03T10:16:49;97451.78;;;21.20;80.56
40502;BME280;29631;49.168;9.848;2023-05-03T10:19:22;97458.34;;;21.34;80.82
40502;BME280;29631;49.168;9.848;2023-05-03T10:22:07;97465.44;;;21.45;80.99
40502;BME280;29631;49.168;9.848;2023-05-03T10:24:36;97446.94;;;21.43;80.89
40502;BME280;29631;49.168;9.848;2023-05-03T10:27:05;97414.81;;;21.27;80.77
40502;BME280;29631;49.168;9.848;2023-05-03T10:32:04;97410.53;;;21.26;80.11
40502;BME280;29631;49.168;9.848;2023-05-03T10:34:36;97443.31;;;21.54;80.56
40502;BME280;29631;49.168;9.848;2023-05-03T10:37:10;97439.78;;;21.54;79.56
40502;BME280;29631;49.168;9.848;2023-05-03T10:39:36;97454.38;;;21.63;79.70
40502;BME280;29631;49.168;9.848;2023-05-03T10:42:04;97437.72;;;21.61;79.75
40502;BME280;29631;49.168;9.848;2023-05-03T10:44:54;97448.28;;;21.72;80.28
40502;BME280;29631;49.168;9.848;2023-05-03T10:47:22;97451.88;;;21.83;80.32
40502;BME280;29631;49.168;9.848;2023-05-03T10:55:19;97445.56;;;21.98;80.13
40502;BME280;29631;49.168;9.848;2023-05-03T10:57:47;97442.41;;;22.06;80.68
40502;BME280;29631;49.168;9.848;2023-05-03T11:03:12;97451.66;;;22.20;80.19
40502;BME280;29631;49.168;9.848;2023-05-03T11:05:49;97431.22;;;22.19;80.74
40502;BME280;29631;49.168;9.848;2023-05-03T11:08:18;97428.56;;;22.24;80.59
40502;BME280;29631;49.168;9.848;2023-05-03T11:10:49;97440.00;;;22.41;80.17
40502;BME280;29631;49.168;9.848;2023-05-03T11:13:15;97430.31;;;22.40;80.17
40502;BME280;29631;49.168;9.848;2023-05-03T11:15:42;97433.88;;;22.51;79.40
40502;BME280;29631;49.168;9.848;2023-05-03T11:18:09;97427.75;;;22.60;79.33
40502;BME280;29631;49.168;9.848;2023-05-03T11:20:38;97410.25;;;22.58;79.13
40502;BME280;29631;49.168;9.848;2023-05-03T11:23:04;97416.50;;;22.68;78.96
40502;BME280;29631;49.168;9.848;2023-05-03T11:25:32;97417.09;;;22.80;79.34
40502;BME280;29631;49.168;9.848;2023-05-03T11:28:02;97413.06;;;22.87;78.76
40502;BME280;29631;49.168;9.848;2023-05-03T11:30:33;97403.13;;;22.88;79.47
40502;BME280;29631;49.168;9.848;2023-05-03T11:32:59;97407.47;;;22.94;78.95
40502;BME280;29631;49.168;9.848;2023-05-03T11:35:29;97400.19;;;22.99;78.81
40502;BME280;29631;49.168;9.848;2023-05-03T11:37:55;97404.31;;;23.12;78.62
40502;BME280;29631;49.168;9.848;2023-05-03T11:40:22;97398.38;;;23.15;78.36
40502;BME280;29631;49.168;9.848;2023-05-03T11:45:23;97393.56;;;23.22;77.15
40502;BME280;29631;49.168;9.848;2023-05-03T11:47:49;97417.81;;;23.37;77.93
40502;BME280;29631;49.168;9.848;2023-05-03T11:50:16;97414.06;;;23.38;77.06
40502;BME280;29631;49.168;9.848;2023-05-03T11:52:44;97403.28;;;23.38;76.66
40502;BME280;29631;49.168;9.848;2023-05-03T11:55:11;97408.16;;;23.45;76.26
40502;BME280;29631;49.168;9.848;2023-05-03T11:57:37;97390.63;;;23.38;76.52
40502;BME280;29631;49.168;9.848;2023-05-03T12:00:15;97393.59;;;23.41;75.86
40502;BME280;29631;49.168;9.848;2023-05-03T12:02:47;97383.91;;;23.36;75.47
40502;BME280;29631;49.168;9.848;2023-05-03T12:05:13;97389.84;;;23.42;76.01
40502;BME280;29631;49.168;9.848;2023-05-03T12:07:40;97401.16;;;23.49;76.33
40502;BME280;29631;49.168;9.848;2023-05-03T12:10:17;97393.06;;;23.49;76.20
40502;BME280;29631;49.168;9.848;2023-05-03T12:12:56;97389.03;;;23.52;76.20
40502;BME280;29631;49.168;9.848;2023-05-03T12:15:34;97390.66;;;23.53;76.06
40502;BME280;29631;49.168;9.848;2023-05-03T12:18:08;97387.16;;;23.57;76.59
40502;BME280;29631;49.168;9.848;2023-05-03T12:20:37;97383.41;;;23.63;76.73
40502;BME280;29631;49.168;9.848;2023-05-03T12:23:05;97385.00;;;23.69;76.58
40502;BME280;29631;49.168;9.848;2023-05-03T12:25:36;97383.41;;;23.68;76.17
40502;BME280;29631;49.168;9.848;2023-05-03T12:28:04;97390.97;;;23.76;75.73
40502;BME280;29631;49.168;9.848;2023-05-03T12:30:31;97379.38;;;23.76;75.49
40502;BME280;29631;49.168;9.848;2023-05-03T12:32:57;97374.53;;;23.83;75.08
40502;BME280;29631;49.168;9.848;2023-05-03T12:35:24;97345.16;;;23.71;74.64
40502;BME280;29631;49.168;9.848;2023-05-03T12:37:50;97371.00;;;23.92;74.80
40502;BME280;29631;49.168;9.848;2023-05-03T12:40:17;97342.47;;;23.76;75.09
40502;BME280;29631;49.168;9.848;2023-05-03T12:42:44;97355.94;;;23.86;74.91
40502;BME280;29631;49.168;9.848;2023-05-03T12:45:11;97347.88;;;23.76;74.23
40502;BME280;29631;49.168;9.848;2023-05-03T12:47:37;97352.16;;;23.72;73.86
40502;BME280;29631;49.168;9.848;2023-05-03T12:50:04;97362.94;;;23.62;74.14
40502;BME280;29631;49.168;9.848;2023-05-03T12:52:30;97327.88;;;23.28;74.62
40502;BME280;29631;49.168;9.848;2023-05-03T12:54:56;97365.06;;;23.60;74.54
40502;BME280;29631;49.168;9.848;2023-05-03T12:57:22;97364.28;;;23.60;74.35
40502;BME280;29631;49.168;9.848;2023-05-03T12:59:48;97358.59;;;23.66;74.77
40502;BME280;29631;49.168;9.848;2023-05-03T13:02:19;97362.41;;;23.65;74.80
40502;BME280;29631;49.168;9.848;2023-05-03T13:04:45;97358.66;;;23.76;75.09
40502;BME280;29631;49.168;9.848;2023-05-03T13:07:10;97354.84;;;23.67;74.71
40502;BME280;29631;49.168;9.848;2023-05-03T13:09:43;97299.38;;;23.41;74.10
40502;BME280;29631;49.168;9.848;2023-05-03T13:12:11;97357.03;;;23.75;73.92
40502;BME280;29631;49.168;9.848;2023-05-03T13:14:37;97332.22;;;23.63;74.02
40502;BME280;29631;49.168;9.848;2023-05-03T13:17:03;97279.47;;;23.38;74.26
40502;BME280;29631;49.168;9.848;2023-05-03T13:19:30;97329.53;;;23.73;74.58
40502;BME280;29631;49.168;9.848;2023-05-03T13:21:56;97350.03;;;23.89;74.83
40502;BME280;29631;49.168;9.848;2023-05-03T13:24:21;97325.50;;;23.86;74.43
40502;BME280;29631;49.168;9.848;2023-05-03T13:26:47;97323.59;;;23.86;74.66
40502;BME280;29631;49.168;9.848;2023-05-03T13:29:13;97296.16;;;23.74;74.34